Time;durP1;ratioP1;P1;durP2;ratioP2;P2;SDS_P1;SDS_P2;PMS_P1;PMS_P2;Temp;Humidity;BMP_temperature;BMP_pressure;BME280_temperature;BME280_humidity;BME280_pressure;Samples;Min_cycle;Max_cycle;Signal;HPM_P1;HPM_P2
2021/03/06 00:01:29;;;;;;;34.95;18.63;;;23.00;36.40;;;;;;6172548;28;83158;-70
2021/03/06 00:04:29;;;;;;;32.92;16.55;;;23.00;36.30;;;;;;6171232;28;83652;-70
2021/03/06 00:07:30;;;;;;;29.58;16.92;;;22.90;36.20;;;;;;6173913;28;83896;-69
2021/03/06 00:10:30;;;;;;;31.17;16.45;;;22.90;36.20;;;;;;6164314;28;83147;-69
2021/03/06 00:13:31;;;;;;;35.08;17.17;;;22.90;36.20;;;;;;6171483;28;83485;-69
2021/03/06 00:16:31;;;;;;;31.02;16.10;;;22.90;36.00;;;;;;6166534;28;82815;-70
2021/03/06 00:19:32;;;;;;;32.60;16.65;;;22.90;35.90;;;;;;6175567;28;84072;-69
2021/03/06 00:22:32;;;;;;;31.98;16.83;;;22.90;35.90;;;;;;6173532;27;83486;-70
2021/03/06 00:25:33;;;;;;;30.63;16.58;;;22.90;35.80;;;;;;6169398;28;83147;-70
2021/03/06 00:28:33;;;;;;;33.15;17.25;;;22.90;35.70;;;;;;6172089;27;88415;-69
2021/03/06 00:31:34;;;;;;;32.00;17.15;;;22.90;35.60;;;;;;6173861;28;84200;-68
2021/03/06 00:34:35;;;;;;;32.35;16.17;;;22.90;35.60;;;;;;6175308;28;83200;-68
2021/03/06 00:37:35;;;;;;;32.38;17.05;;;22.90;35.50;;;;;;6174563;28;84608;-67
2021/03/06 00:40:36;;;;;;;29.55;15.68;;;22.80;35.60;;;;;;6175823;28;83684;-67
2021/03/06 00:43:36;;;;;;;33.67;16.67;;;22.90;35.70;;;;;;6174479;28;83376;-68
2021/03/06 00:46:37;;;;;;;32.15;16.98;;;22.80;35.70;;;;;;6179136;28;85576;-68
2021/03/06 00:49:37;;;;;;;30.65;15.85;;;22.80;35.90;;;;;;6155043;28;85429;-67
2021/03/06 00:52:40;;;;;;;30.20;15.18;;;22.80;36.10;;;;;;6155487;28;85577;-68
2021/03/06 00:55:42;;;;;;;30.35;16.13;;;22.80;36.30;;;;;;6150719;28;84209;-67
2021/03/06 00:58:43;;;;;;;27.95;15.27;;;22.80;36.20;;;;;;6171704;28;83490;-67
2021/03/06 01:01:44;;;;;;;28.98;15.02;;;22.70;35.60;;;;;;6162098;28;83272;-67
2021/03/06 01:04:45;;;;;;;30.15;16.02;;;22.70;35.20;;;;;;6152709;27;84178;-67
2021/03/06 01:07:46;;;;;;;31.23;16.40;;;22.60;35.40;;;;;;6163360;28;83367;-67
2021/03/06 01:10:46;;;;;;;33.55;16.55;;;22.60;35.80;;;;;;6166846;28;84292;-68
2021/03/06 01:13:47;;;;;;;32.40;15.82;;;22.50;35.40;;;;;;6172435;28;83188;-68
2021/03/06 01:16:47;;;;;;;28.40;14.63;;;22.50;36.10;;;;;;6152473;28;84291;-68
2021/03/06 01:19:48;;;;;;;32.90;15.40;;;22.50;35.50;;;;;;6171411;28;82948;-67
2021/03/06 01:22:48;;;;;;;32.88;16.35;;;22.40;35.20;;;;;;6167742;27;83860;-67
2021/03/06 01:25:49;;;;;;;32.47;15.75;;;22.40;35.00;;;;;;6173045;28;84005;-67
2021/03/06 09:02:31;;;;;;;26.80;13.38;;;23.00;29.50;;;;;;5614798;27;900939;-61
2021/03/06 09:05:32;;;;;;;23.17;11.43;;;23.10;29.50;;;;;;6271871;27;83298;-60
2021/03/06 09:08:32;;;;;;;24.73;12.90;;;23.10;29.60;;;;;;6265683;27;83484;-63
2021/03/06 09:11:33;;;;;;;25.92;13.23;;;23.10;30.10;;;;;;6273103;27;83301;-60
2021/03/06 09:14:34;;;;;;;23.70;12.02;;;23.10;30.60;;;;;;6263658;27;83421;-60
2021/03/06 09:17:34;;;;;;;22.83;12.30;;;23.00;30.60;;;;;;6254675;27;83443;-62
2021/03/06 09:20:35;;;;;;;22.10;12.32;;;23.10;30.70;;;;;;6258427;27;83573;-60
2021/03/06 09:23:35;;;;;;;26.65;12.90;;;23.10;30.60;;;;;;6268722;27;83302;-60
2021/03/06 09:26:38;;;;;;;23.13;12.32;;;23.10;30.70;;;;;;6266901;27;83430;-62
2021/03/06 09:29:39;;;;;;;22.75;11.70;;;23.20;30.30;;;;;;6256623;27;84747;-62
2021/03/06 09:32:43;;;;;;;25.85;11.43;;;23.20;30.80;;;;;;6255172;27;83209;-61
2021/03/06 09:35:43;;;;;;;28.25;11.40;;;23.20;30.70;;;;;;6251251;27;83222;-62
2021/03/06 09:38:44;;;;;;;21.02;11.32;;;23.30;30.50;;;;;;6262050;27;84193;-62
2021/03/06 09:41:45;;;;;;;19.45;11.25;;;23.30;30.40;;;;;;6257751;27;83617;-61
2021/03/06 09:44:45;;;;;;;19.92;11.23;;;23.30;30.50;;;;;;6261507;27;83769;-62
2021/03/06 09:47:46;;;;;;;20.25;12.00;;;23.30;30.40;;;;;;6264219;27;83432;-61
2021/03/06 09:50:46;;;;;;;21.58;10.80;;;23.30;30.20;;;;;;6259537;27;82868;-62
2021/03/06 09:53:47;;;;;;;18.15;10.52;;;23.20;30.00;;;;;;6263116;27;83540;-62
2021/03/06 09:56:47;;;;;;;101.03;40.22;;;23.20;30.30;;;;;;6260794;27;82984;-61
2021/03/06 09:59:48;;;;;;;362.20;138.13;;;23.30;30.70;;;;;;6269451;27;82905;-62
2021/03/06 10:02:48;;;;;;;353.00;143.80;;;23.30;31.00;;;;;;6255674;27;85940;-61
2021/03/06 10:05:49;;;;;;;302.10;121.18;;;23.30;31.00;;;;;;6258944;27;85811;-62
2021/03/06 10:08:50;;;;;;;342.48;137.85;;;23.40;31.40;;;;;;6263272;27;94020;-62
2021/03/06 10:11:50;;;;;;;395.70;153.77;;;23.40;31.10;;;;;;6252615;27;85773;-63
2021/03/06 10:14:51;;;;;;;365.58;145.10;;;23.40;31.00;;;;;;6259343;27;85756;-62
2021/03/06 10:17:51;;;;;;;290.77;115.47;;;23.50;30.80;;;;;;6243101;27;86218;-62
2021/03/06 10:20:52;;;;;;;236.90;99.85;;;23.50;31.00;;;;;;6258349;27;86059;-62
2021/03/06 10:23:53;;;;;;;204.50;84.90;;;23.50;30.90;;;;;;6258622;27;85333;-62
2021/03/06 10:26:53;;;;;;;207.43;80.38;;;23.40;31.20;;;;;;6262740;27;83241;-62
2021/03/06 10:29:54;;;;;;;186.48;75.45;;;23.40;31.00;;;;;;6265094;27;83299;-62
2021/03/06 10:32:56;;;;;;;158.43;64.30;;;23.40;31.20;;;;;;6264998;27;84295;-62
2021/03/06 10:35:57;;;;;;;158.25;61.58;;;23.40;31.80;;;;;;6239115;27;89174;-63
2021/03/06 10:38:58;;;;;;;131.52;54.95;;;23.40;31.00;;;;;;6268239;27;83445;-61
2021/03/06 10:41:58;;;;;;;131.40;52.67;;;23.40;31.80;;;;;;6268794;27;83450;-61
2021/03/06 10:44:59;;;;;;;112.05;47.80;;;23.30;32.00;;;;;;6254336;27;83460;-63
2021/03/06 10:47:59;;;;;;;110.25;45.95;;;23.30;31.40;;;;;;6259629;27;83491;-60
2021/03/06 10:51:00;;;;;;;118.60;43.35;;;23.30;31.20;;;;;;6263373;27;82910;-62
2021/03/06 10:54:00;;;;;;;100.72;41.08;;;23.30;31.30;;;;;;6274887;27;85948;-62
2021/03/06 10:57:01;;;;;;;94.32;39.17;;;23.30;31.20;;;;;;6273311;27;83323;-62
2021/03/06 11:00:02;;;;;;;85.93;34.58;;;23.30;31.30;;;;;;6260007;27;83399;-62
2021/03/06 11:03:02;;;;;;;77.10;33.22;;;23.30;31.80;;;;;;6267550;27;85617;-62
2021/03/06 11:06:03;;;;;;;78.28;31.27;;;23.30;31.00;;;;;;6249521;27;82858;-63
2021/03/06 11:09:03;;;;;;;63.25;27.05;;;23.20;31.60;;;;;;6271451;27;84722;-62
2021/03/06 11:12:04;;;;;;;74.30;28.35;;;23.20;31.40;;;;;;6264890;27;83330;-63
2021/03/06 11:15:05;;;;;;;65.85;28.05;;;23.20;30.90;;;;;;6262412;27;85170;-63
2021/03/06 11:18:05;;;;;;;59.33;25.35;;;23.20;30.50;;;;;;6263424;27;83524;-63
2021/03/06 11:21:08;;;;;;;58.88;23.23;;;23.20;30.60;;;;;;6268927;27;83151;-61
2021/03/06 11:24:09;;;;;;;51.20;21.20;;;23.20;31.00;;;;;;6257748;27;83254;-64
2021/03/06 11:27:09;;;;;;;47.95;21.23;;;23.20;32.70;;;;;;6261508;27;83114;-62
2021/03/06 11:30:10;;;;;;;44.60;19.55;;;23.20;32.50;;;;;;6267294;27;83587;-62
2021/03/06 11:33:11;;;;;;;41.40;16.92;;;23.20;33.60;;;;;;6269617;27;83117;-60
2021/03/06 11:36:11;;;;;;;43.60;17.33;;;23.20;32.50;;;;;;6261849;27;85008;-63
2021/03/06 11:39:12;;;;;;;37.08;16.30;;;23.20;33.10;;;;;;6261731;27;83538;-62
2021/03/06 11:42:12;;;;;;;35.75;15.82;;;23.10;32.70;;;;;;6273131;27;84538;-62
2021/03/06 11:45:13;;;;;;;31.48;14.20;;;23.10;33.00;;;;;;6271941;27;84463;-62
2021/03/06 11:48:14;;;;;;;32.08;14.63;;;23.10;33.00;;;;;;6244162;27;83564;-62
2021/03/06 11:51:14;;;;;;;30.83;14.80;;;23.10;32.50;;;;;;6260876;27;82907;-62
2021/03/06 11:54:15;;;;;;;30.08;13.43;;;23.10;33.60;;;;;;6261125;27;84292;-61
2021/03/06 11:57:15;;;;;;;26.70;12.75;;;23.00;33.70;;;;;;6263830;27;83428;-61
2021/03/06 12:00:16;;;;;;;24.02;11.95;;;23.00;34.20;;;;;;6272212;27;83848;-62
2021/03/06 12:03:17;;;;;;;25.90;13.20;;;23.00;33.70;;;;;;6262838;27;84390;-61
2021/03/06 12:06:17;;;;;;;21.75;11.25;;;23.10;32.90;;;;;;6265861;27;83085;-61
2021/03/06 12:09:18;;;;;;;25.02;10.35;;;23.10;33.30;;;;;;6260909;27;84063;-61
2021/03/06 12:12:18;;;;;;;24.38;10.30;;;23.10;33.20;;;;;;6256931;27;83243;-61
2021/03/06 12:15:19;;;;;;;19.10;10.05;;;23.00;33.40;;;;;;6262882;27;83074;-61
2021/03/06 12:18:19;;;;;;;18.08;9.43;;;23.10;34.60;;;;;;6258523;27;84523;-62
2021/03/06 12:21:20;;;;;;;18.95;9.25;;;23.00;33.10;;;;;;6265965;27;82085;-61
2021/03/06 12:24:21;;;;;;;18.02;9.15;;;23.00;32.90;;;;;;6272624;27;80789;-61
2021/03/06 12:27:21;;;;;;;18.73;9.00;;;23.10;34.10;;;;;;6269945;27;80455;-62
2021/03/06 12:30:22;;;;;;;19.45;9.40;;;23.10;32.50;;;;;;6261864;27;80723;-63
2021/03/06 12:33:22;;;;;;;18.40;8.80;;;23.10;34.60;;;;;;6261812;27;80436;-64
2021/03/06 12:36:24;;;;;;;17.33;8.25;;;23.10;33.50;;;;;;6265686;27;80483;-65
2021/03/06 12:39:25;;;;;;;16.17;8.77;;;23.10;35.40;;;;;;6263342;27;81971;-64
2021/03/06 12:42:25;;;;;;;16.75;7.75;;;23.10;34.10;;;;;;6260192;27;80690;-64
2021/03/06 12:45:26;;;;;;;15.25;7.82;;;23.00;33.60;;;;;;6265789;27;81542;-63
2021/03/06 12:48:26;;;;;;;13.80;8.30;;;23.00;32.80;;;;;;6265678;27;80671;-63
2021/03/06 12:51:27;;;;;;;15.02;7.70;;;23.00;33.50;;;;;;6260825;27;81161;-62
2021/03/06 12:54:29;;;;;;;14.93;8.60;;;23.00;34.00;;;;;;6270903;27;81326;-62
2021/03/06 12:57:29;;;;;;;14.35;7.60;;;22.90;32.80;;;;;;6272888;27;80647;-62
2021/03/06 13:00:31;;;;;;;15.23;7.40;;;22.90;32.30;;;;;;6273251;27;80794;-61
2021/03/06 13:03:31;;;;;;;14.07;7.35;;;22.90;31.70;;;;;;6277146;27;80475;-62
2021/03/06 13:06:32;;;;;;;13.30;6.82;;;22.90;33.30;;;;;;6270752;27;80641;-62
2021/03/06 13:09:33;;;;;;;14.35;6.93;;;22.90;32.30;;;;;;6250362;27;80664;-62
2021/03/06 13:12:33;;;;;;;13.27;7.30;;;23.00;33.90;;;;;;6269152;27;81082;-61
2021/03/06 13:15:34;;;;;;;13.05;7.28;;;22.90;32.80;;;;;;6272089;27;82262;-62
2021/03/06 13:18:34;;;;;;;17.02;6.95;;;22.90;32.70;;;;;;6269126;27;80826;-63
2021/03/06 13:21:35;;;;;;;16.92;7.32;;;22.90;32.50;;;;;;6280870;27;81385;-64
2021/03/06 13:24:35;;;;;;;12.98;6.95;;;22.90;32.10;;;;;;6274977;27;88863;-63
2021/03/06 13:27:36;;;;;;;14.55;7.28;;;22.90;31.90;;;;;;6252288;27;82396;-64
2021/03/06 13:30:37;;;;;;;14.07;6.43;;;22.90;32.80;;;;;;6267263;27;80516;-63
2021/03/06 13:33:37;;;;;;;16.75;6.63;;;22.90;32.30;;;;;;6236152;27;81729;-63
2021/03/06 13:36:38;;;;;;;12.43;6.72;;;22.90;32.50;;;;;;6225841;27;82559;-62
2021/03/06 13:39:39;;;;;;;13.30;6.78;;;22.90;31.60;;;;;;6267312;27;83704;-62
2021/03/06 13:42:39;;;;;;;14.55;7.90;;;22.90;31.30;;;;;;6270219;27;81870;-62
2021/03/06 13:45:40;;;;;;;11.73;6.68;;;22.90;31.60;;;;;;6266435;27;81340;-62
2021/03/06 13:48:44;;;;;;;12.73;6.25;;;22.90;30.90;;;;;;6271332;27;80908;-62
2021/03/06 13:51:44;;;;;;;12.40;6.65;;;22.90;30.80;;;;;;6264882;27;80962;-63
2021/03/06 13:54:45;;;;;;;14.20;7.22;;;22.90;31.30;;;;;;6267356;27;81448;-63
2021/03/06 13:57:45;;;;;;;17.35;7.25;;;22.90;31.70;;;;;;6265850;27;80996;-62
2021/03/06 14:00:46;;;;;;;14.50;7.07;;;22.90;30.90;;;;;;6265474;27;81551;-62
2021/03/06 14:03:47;;;;;;;12.57;7.10;;;22.90;29.80;;;;;;6261337;27;82136;-61
2021/03/06 14:06:48;;;;;;;13.18;6.25;;;22.80;29.90;;;;;;6270031;27;80690;-61
2021/03/06 14:09:49;;;;;;;12.27;6.72;;;22.80;29.40;;;;;;6264768;27;81764;-61
2021/03/06 14:12:49;;;;;;;14.82;7.43;;;22.80;29.60;;;;;;6269552;27;82900;-62
2021/03/06 14:15:50;;;;;;;11.40;6.53;;;22.70;29.80;;;;;;6256888;27;81500;-63
2021/03/06 14:18:51;;;;;;;13.93;7.22;;;22.80;30.70;;;;;;6266574;27;80568;-63
2021/03/06 14:21:51;;;;;;;12.90;6.38;;;22.80;30.20;;;;;;6268982;27;82637;-62
2021/03/06 14:24:52;;;;;;;15.18;7.57;;;22.80;30.80;;;;;;6264421;27;80752;-63
2021/03/06 14:27:52;;;;;;;10.52;6.38;;;22.80;30.30;;;;;;6276264;27;80481;-63
2021/03/06 14:30:53;;;;;;;18.83;7.45;;;22.80;31.00;;;;;;6269168;27;80765;-63
2021/03/06 14:33:53;;;;;;;20.00;8.40;;;22.80;30.50;;;;;;6245569;27;80865;-62
2021/03/06 14:36:54;;;;;;;31.17;11.73;;;22.80;31.70;;;;;;6268431;27;81113;-61
2021/03/06 14:39:55;;;;;;;31.23;11.38;;;22.80;31.20;;;;;;6257034;27;85044;-61
2021/03/06 14:42:55;;;;;;;39.50;10.20;;;22.80;32.00;;;;;;6268916;27;83004;-62
2021/03/06 14:45:56;;;;;;;40.60;11.23;;;22.80;30.20;;;;;;6273417;27;84151;-62
2021/03/06 14:48:56;;;;;;;36.55;10.60;;;22.80;31.60;;;;;;6271442;27;83543;-63
2021/03/06 14:51:57;;;;;;;39.45;11.25;;;22.80;31.40;;;;;;6246634;27;89364;-62
2021/03/06 14:54:58;;;;;;;33.25;11.55;;;22.80;30.90;;;;;;6260958;27;85402;-62
2021/03/06 14:57:59;;;;;;;27.67;11.05;;;22.90;30.20;;;;;;6266498;27;83461;-63
2021/03/06 15:01:00;;;;;;;27.60;9.85;;;22.90;29.50;;;;;;6266549;27;83505;-62
2021/03/06 15:04:00;;;;;;;25.58;10.65;;;22.90;29.70;;;;;;6255090;27;83000;-62
2021/03/06 15:07:01;;;;;;;29.70;10.45;;;22.90;29.70;;;;;;6276188;27;83640;-62
2021/03/06 15:10:01;;;;;;;27.10;11.10;;;22.90;30.00;;;;;;6269108;27;84423;-62
2021/03/06 15:13:02;;;;;;;28.35;10.13;;;22.90;30.30;;;;;;6271392;27;83509;-62
2021/03/06 15:16:03;;;;;;;23.95;9.27;;;23.00;30.00;;;;;;6268101;27;83904;-63
2021/03/06 15:19:03;;;;;;;22.33;9.10;;;23.00;30.10;;;;;;6273198;27;81788;-62
2021/03/06 15:22:04;;;;;;;23.98;9.07;;;23.10;30.50;;;;;;6273570;27;81012;-65
2021/03/06 15:25:05;;;;;;;21.65;9.13;;;23.10;30.40;;;;;;6274536;27;80914;-63
2021/03/06 15:28:05;;;;;;;24.23;8.77;;;23.20;30.30;;;;;;6274374;27;81013;-63
2021/03/06 15:31:06;;;;;;;22.05;8.75;;;23.10;30.50;;;;;;6272445;27;80534;-64
2021/03/06 15:34:06;;;;;;;19.33;8.98;;;23.20;30.60;;;;;;6274869;27;81220;-63
2021/03/06 15:37:07;;;;;;;21.75;9.27;;;23.20;30.50;;;;;;6271604;27;80604;-63
2021/03/06 15:40:08;;;;;;;18.63;7.95;;;23.20;30.70;;;;;;6270103;27;81623;-63
2021/03/06 15:43:08;;;;;;;23.88;9.43;;;23.20;31.10;;;;;;6270383;27;81682;-64
2021/03/06 15:46:09;;;;;;;19.98;7.40;;;23.20;30.60;;;;;;6267127;27;81873;-63
2021/03/06 15:49:09;;;;;;;18.17;7.93;;;23.10;30.60;;;;;;6271921;27;81091;-63
2021/03/06 15:52:10;;;;;;;14.65;6.90;;;23.10;30.50;;;;;;6247090;27;81348;-62
2021/03/06 15:55:11;;;;;;;15.43;7.70;;;23.10;30.20;;;;;;6271880;27;80770;-62
2021/03/06 15:58:11;;;;;;;15.85;7.80;;;23.10;30.50;;;;;;6264291;27;81342;-64
2021/03/06 16:01:13;;;;;;;18.35;7.40;;;23.00;30.30;;;;;;6262479;27;80895;-63
2021/03/06 16:04:14;;;;;;;14.15;6.25;;;22.90;30.90;;;;;;6262138;27;82214;-63
2021/03/06 16:07:14;;;;;;;17.65;7.13;;;22.90;30.60;;;;;;6268845;27;81225;-61
2021/03/06 16:10:15;;;;;;;15.02;6.72;;;22.90;30.90;;;;;;6262359;27;80605;-62
2021/03/06 16:13:15;;;;;;;18.20;6.93;;;22.90;31.70;;;;;;6248343;27;81662;-63
2021/03/06 16:16:16;;;;;;;14.07;6.50;;;22.90;31.90;;;;;;6256312;27;81066;-62
2021/03/06 16:19:16;;;;;;;13.10;6.45;;;22.90;31.90;;;;;;6262668;27;81492;-63
2021/03/06 16:22:17;;;;;;;16.50;6.97;;;22.90;31.80;;;;;;6243337;27;80996;-63
2021/03/06 16:25:17;;;;;;;11.77;5.85;;;22.80;31.90;;;;;;6268856;27;83412;-65
2021/03/06 16:28:18;;;;;;;12.52;5.95;;;22.80;32.20;;;;;;6264371;27;80983;-62
2021/03/06 16:31:18;;;;;;;11.70;6.30;;;22.80;31.80;;;;;;6221354;27;82629;-62
2021/03/06 16:34:19;;;;;;;13.65;5.90;;;22.70;31.80;;;;;;6262561;27;80399;-63
2021/03/06 16:37:20;;;;;;;13.15;6.13;;;22.70;32.10;;;;;;6238488;27;81552;-62
2021/03/06 16:40:20;;;;;;;11.07;5.68;;;22.70;32.60;;;;;;6260143;27;81274;-64
2021/03/06 16:43:21;;;;;;;13.13;6.32;;;22.70;32.60;;;;;;6269965;27;81862;-62
2021/03/06 16:46:21;;;;;;;10.68;5.60;;;22.70;32.10;;;;;;6270674;27;80464;-62
2021/03/06 16:49:22;;;;;;;13.30;6.32;;;22.70;32.70;;;;;;6260925;27;81268;-63
2021/03/06 16:52:22;;;;;;;11.20;5.40;;;22.60;31.70;;;;;;6265609;27;80448;-61
2021/03/06 16:55:23;;;;;;;12.70;5.55;;;22.60;31.70;;;;;;6262210;27;81271;-61
2021/03/06 16:58:23;;;;;;;12.90;6.07;;;22.60;31.90;;;;;;6265702;27;83167;-63
2021/03/06 17:01:24;;;;;;;15.30;6.60;;;22.60;32.60;;;;;;6265885;27;80631;-63
2021/03/06 17:04:24;;;;;;;12.60;6.35;;;22.70;31.70;;;;;;6266942;27;80192;-64
2021/03/06 17:07:25;;;;;;;14.15;6.95;;;22.60;31.50;;;;;;6262459;27;80620;-63
2021/03/06 17:10:26;;;;;;;13.93;6.50;;;22.60;31.80;;;;;;6253806;27;83102;-63
2021/03/06 17:13:26;;;;;;;9.93;5.85;;;22.60;31.50;;;;;;6261608;27;80536;-61
2021/03/06 17:16:27;;;;;;;16.63;7.32;;;22.60;31.10;;;;;;6264012;27;80686;-63
2021/03/06 17:19:28;;;;;;;14.75;7.45;;;22.60;30.90;;;;;;6257706;27;80271;-62
2021/03/06 17:22:29;;;;;;;13.00;6.82;;;22.60;31.30;;;;;;6259603;27;82284;-62
2021/03/06 17:25:29;;;;;;;14.18;7.53;;;22.50;30.90;;;;;;6264985;27;81035;-63
2021/03/06 17:28:30;;;;;;;15.23;7.40;;;22.50;30.80;;;;;;6272014;27;80902;-63
2021/03/06 17:31:30;;;;;;;12.18;6.82;;;22.50;31.00;;;;;;6269452;27;80612;-62
2021/03/06 17:34:31;;;;;;;11.60;6.80;;;22.50;30.70;;;;;;6252122;27;80918;-63
2021/03/06 17:37:32;;;;;;;15.55;7.32;;;22.50;30.70;;;;;;6262908;27;81167;-62
2021/03/06 17:40:32;;;;;;;18.38;8.63;;;22.50;30.80;;;;;;6267767;27;82138;-62
2021/03/06 17:43:33;;;;;;;17.02;8.52;;;22.50;30.60;;;;;;6266073;27;80510;-63
2021/03/06 17:46:33;;;;;;;15.63;8.23;;;22.40;30.40;;;;;;6253228;27;81566;-61
2021/03/06 17:49:34;;;;;;;16.10;8.82;;;22.40;30.40;;;;;;6262939;27;81482;-61
2021/03/06 17:52:35;;;;;;;13.80;8.50;;;22.50;30.40;;;;;;6267781;27;81320;-61
2021/03/06 17:55:35;;;;;;;16.75;8.60;;;22.40;30.30;;;;;;6259578;27;80684;-60
2021/03/06 17:58:36;;;;;;;15.82;9.30;;;22.40;30.60;;;;;;6262150;27;80700;-60
2021/03/06 18:01:36;;;;;;;16.58;9.15;;;22.40;30.00;;;;;;6267405;27;80856;-61
2021/03/06 18:04:37;;;;;;;16.80;8.50;;;22.40;30.00;;;;;;6272775;27;80475;-62
2021/03/06 18:07:38;;;;;;;17.30;9.57;;;22.40;29.90;;;;;;6267940;27;81276;-63
2021/03/06 18:10:38;;;;;;;16.75;9.20;;;22.30;30.00;;;;;;6261899;27;81322;-62
2021/03/06 18:13:39;;;;;;;17.13;9.88;;;22.30;30.00;;;;;;6273730;27;81152;-63
2021/03/06 18:16:39;;;;;;;19.77;10.55;;;22.30;30.00;;;;;;6267880;27;81857;-63
2021/03/06 18:19:40;;;;;;;15.55;8.98;;;22.30;30.00;;;;;;6267317;27;82980;-62
2021/03/06 18:22:40;;;;;;;17.73;10.15;;;22.40;30.00;;;;;;6248688;27;84413;-62
2021/03/06 18:25:41;;;;;;;19.77;10.30;;;22.40;30.40;;;;;;6272969;27;83596;-61
2021/03/06 18:28:42;;;;;;;17.60;9.45;;;22.40;30.80;;;;;;6249433;27;83583;-63
2021/03/06 18:31:42;;;;;;;19.98;10.70;;;22.40;30.40;;;;;;6270275;27;83018;-62
2021/03/06 18:34:43;;;;;;;18.98;10.02;;;22.40;30.00;;;;;;6272664;27;82969;-63
2021/03/06 18:37:43;;;;;;;20.08;11.27;;;22.50;30.90;;;;;;6273383;27;82989;-63
2021/03/06 18:40:45;;;;;;;22.58;11.32;;;22.50;30.10;;;;;;6258814;27;83603;-62
2021/03/06 18:43:46;;;;;;;19.42;10.93;;;22.50;29.90;;;;;;6218566;28;84322;-62
2021/03/06 18:46:46;;;;;;;19.23;11.02;;;22.60;29.90;;;;;;6229735;28;83211;-62
2021/03/06 18:49:47;;;;;;;20.35;11.32;;;22.60;29.30;;;;;;6230133;28;85320;-62
2021/03/06 18:52:48;;;;;;;26.98;12.50;;;22.70;29.20;;;;;;6240425;28;83543;-61
2021/03/06 18:55:48;;;;;;;20.63;11.68;;;22.70;29.00;;;;;;6235972;28;83092;-62
2021/03/06 18:58:49;;;;;;;20.38;11.38;;;22.70;28.90;;;;;;6244383;27;85777;-63
2021/03/06 19:01:49;;;;;;;19.50;10.90;;;22.80;28.80;;;;;;6234230;28;82790;-63
2021/03/06 19:04:50;;;;;;;19.27;11.10;;;22.80;28.70;;;;;;6234152;28;85743;-63
2021/03/06 19:07:50;;;;;;;22.42;10.90;;;22.90;28.80;;;;;;6233765;28;83218;-62
2021/03/06 19:10:51;;;;;;;21.00;11.77;;;22.90;29.20;;;;;;6241333;28;83297;-64
2021/03/06 19:13:54;;;;;;;19.80;11.25;;;22.90;29.50;;;;;;6241405;28;83704;-63
2021/03/06 19:16:54;;;;;;;21.30;10.98;;;22.90;29.50;;;;;;6234456;28;84142;-62
2021/03/06 19:19:56;;;;;;;23.67;11.38;;;23.00;29.40;;;;;;6233902;28;83209;-63
2021/03/06 19:22:56;;;;;;;21.13;11.07;;;22.90;29.20;;;;;;6243702;28;83412;-63
2021/03/06 19:25:57;;;;;;;22.63;11.82;;;22.90;29.20;;;;;;6236709;27;83769;-64
2021/03/06 19:28:57;;;;;;;22.60;11.38;;;23.00;29.20;;;;;;6232436;27;84168;-63
2021/03/06 19:31:58;;;;;;;20.25;11.02;;;23.00;28.90;;;;;;6228935;28;83772;-63
2021/03/06 19:34:58;;;;;;;21.38;11.15;;;23.00;28.70;;;;;;6213994;28;85545;-63
2021/03/06 19:37:59;;;;;;;23.20;12.15;;;23.00;29.30;;;;;;6241799;27;83566;-62
2021/03/06 19:41:00;;;;;;;21.80;11.38;;;23.00;28.70;;;;;;6237242;28;83628;-59
2021/03/06 19:44:00;;;;;;;22.20;10.88;;;22.90;28.80;;;;;;6244741;28;85399;-63
2021/03/06 19:47:01;;;;;;;18.90;11.07;;;22.90;29.00;;;;;;6248981;28;83880;-63
2021/03/06 19:50:01;;;;;;;19.20;11.27;;;22.80;28.80;;;;;;6244581;28;83694;-63
2021/03/06 19:53:02;;;;;;;21.27;11.52;;;22.80;29.00;;;;;;6237195;28;83588;-64
2021/03/06 19:56:02;;;;;;;24.38;12.38;;;22.80;29.60;;;;;;6228393;28;83443;-62
2021/03/06 19:59:03;;;;;;;23.13;11.77;;;22.80;28.90;;;;;;6237339;28;86119;-61
2021/03/06 20:02:03;;;;;;;18.83;10.55;;;22.70;28.80;;;;;;6245145;27;83785;-63
2021/03/06 20:05:04;;;;;;;20.73;11.75;;;22.70;28.80;;;;;;6235993;28;84061;-61
2021/03/06 20:08:05;;;;;;;21.98;11.07;;;22.60;28.90;;;;;;6237038;28;82953;-62
2021/03/06 20:11:05;;;;;;;40.83;10.75;;;22.60;29.50;;;;;;6237094;28;84321;-61
2021/03/06 20:14:06;;;;;;;21.25;11.65;;;22.50;29.30;;;;;;6243990;28;83375;-62
2021/03/06 20:17:06;;;;;;;19.38;10.95;;;22.50;29.10;;;;;;6236570;28;83019;-63
2021/03/06 20:20:07;;;;;;;21.88;11.52;;;22.50;28.90;;;;;;6241189;28;84064;-62
2021/03/06 20:23:08;;;;;;;20.33;11.65;;;22.40;28.80;;;;;;6244022;28;84321;-62
2021/03/06 20:26:08;;;;;;;21.35;11.68;;;22.40;29.40;;;;;;6216940;28;83862;-63
2021/03/06 20:29:09;;;;;;;23.88;11.98;;;22.40;29.50;;;;;;6245636;28;83033;-62
2021/03/06 20:32:09;;;;;;;19.00;11.38;;;22.40;29.30;;;;;;6244277;28;83408;-62
2021/03/06 20:35:10;;;;;;;22.98;11.57;;;22.40;29.70;;;;;;6242894;28;83389;-62
2021/03/06 20:38:10;;;;;;;23.10;11.23;;;22.40;30.10;;;;;;6241015;28;83258;-63
2021/03/06 20:41:11;;;;;;;19.40;10.93;;;22.50;30.90;;;;;;6226032;28;84966;-63
2021/03/06 20:44:11;;;;;;;19.27;10.80;;;22.50;31.40;;;;;;6243042;28;83141;-62
2021/03/06 20:47:12;;;;;;;20.70;11.68;;;22.40;31.70;;;;;;6243478;27;83536;-63
2021/03/06 20:50:13;;;;;;;18.85;11.20;;;22.40;31.90;;;;;;6244161;28;83319;-62
2021/03/06 20:53:14;;;;;;;18.00;11.07;;;22.40;32.60;;;;;;6211399;28;86181;-64
2021/03/06 20:56:14;;;;;;;23.90;12.10;;;22.40;33.20;;;;;;6236238;27;84032;-64
2021/03/06 20:59:15;;;;;;;19.58;11.10;;;22.40;35.10;;;;;;6223127;28;83445;-64
2021/03/06 21:02:15;;;;;;;19.67;11.07;;;22.40;36.40;;;;;;6242386;28;83678;-64
2021/03/06 21:05:16;;;;;;;19.88;9.95;;;22.40;36.80;;;;;;6243399;28;83127;-63
2021/03/06 21:08:17;;;;;;;23.35;11.15;;;22.40;38.10;;;;;;6244448;28;82019;-64
2021/03/06 21:11:17;;;;;;;21.25;10.98;;;22.30;38.30;;;;;;6232257;27;83529;-63
2021/03/06 21:14:18;;;;;;;19.55;11.40;;;22.40;38.90;;;;;;6229459;28;85684;-63
2021/03/06 21:17:18;;;;;;;21.20;10.55;;;22.30;38.90;;;;;;6237885;28;83317;-64
2021/03/06 21:20:19;;;;;;;18.42;10.55;;;22.30;39.90;;;;;;6238765;28;84013;-64
2021/03/06 21:23:20;;;;;;;21.17;11.18;;;22.30;39.30;;;;;;6234349;28;83434;-64
2021/03/06 21:26:20;;;;;;;17.50;10.30;;;22.30;39.40;;;;;;6237581;28;83747;-63
2021/03/06 21:29:21;;;;;;;20.15;10.60;;;22.30;39.40;;;;;;6233017;28;84030;-64
2021/03/06 21:32:21;;;;;;;22.73;10.90;;;22.30;40.00;;;;;;6233186;28;83780;-64
2021/03/06 21:35:22;;;;;;;19.05;11.02;;;22.20;39.40;;;;;;6235798;28;84506;-64
2021/03/06 21:38:22;;;;;;;20.13;10.80;;;22.30;40.30;;;;;;6229735;28;85767;-64
2021/03/06 21:41:23;;;;;;;18.98;10.35;;;22.20;40.20;;;;;;6228955;28;83346;-63
2021/03/06 21:44:23;;;;;;;17.38;9.95;;;22.20;40.10;;;;;;6230957;28;83729;-63
2021/03/06 21:47:24;;;;;;;19.88;10.82;;;22.20;39.70;;;;;;6222861;28;83056;-62
2021/03/06 21:50:25;;;;;;;19.90;10.05;;;22.20;39.50;;;;;;6240171;28;83937;-63
2021/03/06 21:53:25;;;;;;;19.50;10.18;;;22.20;39.40;;;;;;6238813;28;83716;-64
2021/03/06 21:56:26;;;;;;;17.02;9.10;;;22.10;40.00;;;;;;6238493;27;83848;-64
2021/03/06 21:59:26;;;;;;;14.77;8.73;;;22.10;39.40;;;;;;6246003;28;83344;-63
2021/03/06 22:02:27;;;;;;;15.18;9.18;;;22.10;39.20;;;;;;6244534;27;80509;-64
2021/03/06 22:05:28;;;;;;;17.33;9.70;;;22.10;39.10;;;;;;6234687;28;81344;-63
2021/03/06 22:08:28;;;;;;;15.60;9.13;;;22.10;38.90;;;;;;6239372;28;81085;-65
2021/03/06 22:11:29;;;;;;;13.88;8.50;;;22.10;39.10;;;;;;6248639;28;81554;-64
2021/03/06 22:14:29;;;;;;;14.98;9.00;;;22.10;39.10;;;;;;6238226;28;80343;-64
2021/03/06 22:17:30;;;;;;;16.08;9.05;;;22.00;39.00;;;;;;6238497;28;80564;-65
2021/03/06 22:20:30;;;;;;;17.30;9.05;;;22.00;39.00;;;;;;6238566;28;82657;-63
2021/03/06 22:23:31;;;;;;;12.63;7.65;;;22.00;38.60;;;;;;6248638;28;80594;-64
2021/03/06 22:26:31;;;;;;;14.75;8.55;;;22.00;38.50;;;;;;6241811;28;80739;-63
2021/03/06 22:29:32;;;;;;;13.63;8.35;;;21.90;38.20;;;;;;6237757;28;80796;-63
2021/03/06 22:32:32;;;;;;;16.63;8.95;;;21.90;38.00;;;;;;6242334;27;81150;-65
2021/03/06 22:35:33;;;;;;;16.63;8.02;;;21.90;37.90;;;;;;6249886;28;80359;-64
2021/03/06 22:38:33;;;;;;;14.25;8.13;;;21.90;37.80;;;;;;6244236;28;80992;-64
2021/03/06 22:41:34;;;;;;;11.13;7.05;;;21.90;37.60;;;;;;6248317;28;80803;-63
2021/03/06 22:44:35;;;;;;;12.73;7.82;;;21.80;37.40;;;;;;6244357;28;80247;-63
2021/03/06 22:47:35;;;;;;;14.25;7.50;;;21.80;37.40;;;;;;6250309;28;80576;-63
2021/03/06 22:50:36;;;;;;;11.90;7.22;;;21.80;37.30;;;;;;6219735;28;82790;-63
2021/03/06 22:53:36;;;;;;;13.95;7.57;;;21.80;37.20;;;;;;6240242;28;81306;-63